Latest Weather Observations for Newman Airport

IDW60801

Issued at 11:02 pm WST Wednesday 4 May 2016 (issued every 30 minutes, with the page automatically refreshed every 10 minutes)

About weather observations | Map of weather stations | Latest weather observations for WA | Other Formats
Station Details ID: 007176 Name: NEWMAN AERO Lat: -23.42 Lon: 119.80 Height: 524.0 m
Data from the previous 72 hours. | See also: Recent months at Newman Airport
Date/Time
WST
Temp
°C
App
Temp
°C
Dew
Point
Rel
Hum
%
Delta-T
°C
Wind Press
QNH
hPa
Press
MSL
hPa
Rain
since 9 am
mm
Dir
 
Spd
km/h
Gust
km/h
Spd
kts
Gust
kts
04/11:00pm 23.2 21.8 9.6 42 7.6 ESE 7 11 4 6 1014.5 1012.6 0.0
04/10:30pm 23.6 21.9 9.9 42 7.7 SSE 9 15 5 8 1014.9 1013.0 0.0
04/10:00pm 23.6 21.9 11.3 46 7.1 S 11 15 6 8 1015.0 1013.1 0.0
04/09:30pm 24.0 22.3 12.6 49 6.7 E 13 20 7 11 1014.8 1012.9 0.0
04/09:00pm 24.7 23.6 13.0 48 6.9 ESE 11 13 6 7 1014.9 1013.0 0.0
04/08:30pm 25.2 24.1 13.1 47 7.2 S 11 17 6 9 1014.7 1012.8 0.0
04/08:00pm 25.3 24.7 13.5 48 7.1 SE 9 13 5 7 1014.4 1012.5 0.0
04/07:30pm 25.2 25.0 14.6 51 6.5 ENE 9 13 5 7 1014.0 1012.0 0.0
04/07:00pm 25.5 24.1 14.6 51 6.7 ENE 15 26 8 14 1013.4 1011.4 0.0
04/06:30pm 27.6 24.7 12.4 39 9.0 NE 19 28 10 15 1013.0 1011.1 0.0
04/06:00pm 29.7 27.9 9.3 28 11.7 ENE 9 13 5 7 1012.7 1010.8 0.0
04/05:30pm 30.1 28.3 9.6 28 11.8 ESE 9 13 5 7 1012.3 1010.3 0.0
04/05:00pm 30.8 29.0 9.6 27 12.2 ESE 9 13 5 7 1012.1 1010.1 0.0
04/04:30pm 30.8 29.4 9.6 27 12.2 ENE 7 11 4 6 1011.9 1009.9 0.0
04/04:00pm 31.0 29.3 9.8 27 12.3 ENE 9 13 5 7 1012.0 1010.0 0.0
04/03:30pm 30.8 28.7 9.6 27 12.2 ENE 11 19 6 10 1012.3 1010.3 0.0
04/03:00pm 31.1 29.0 9.9 27 12.3 ENE 11 15 6 8 1012.4 1010.4 0.0
04/02:30pm 30.9 28.0 9.7 27 12.2 NE 15 24 8 13 1012.6 1010.6 0.0
04/02:00pm 30.9 27.9 9.2 26 12.4 NNE 15 20 8 11 1012.7 1010.8 0.0
04/01:30pm 30.2 26.4 9.1 27 12.0 NNE 19 26 10 14 1012.9 1011.0 0.0
04/01:00pm 30.6 26.6 8.3 25 12.6 NNE 19 28 10 15 1013.2 1011.3 0.0
04/12:30pm 30.1 25.4 7.9 25 12.4 NNE 22 35 12 19 1013.8 1011.8 0.0
04/12:00pm 30.6 26.7 7.1 23 13.0 NNE 17 28 9 15 1014.4 1012.5 0.0
04/11:30am 30.3 25.2 6.2 22 13.1 NNE 22 32 12 17 1014.8 1012.9 0.0
04/11:00am 30.3 24.4 5.6 21 13.3 NE 26 37 14 20 1015.4 1013.4 0.0
04/10:30am 29.9 24.0 5.9 22 13.0 NNE 26 33 14 18 1015.9 1013.9 0.0
04/10:00am 29.3 24.6 6.0 23 12.6 NE 20 26 11 14 1016.1 1014.2 0.0
04/09:30am 27.5 22.3 5.7 25 11.6 NE 22 28 12 15 1016.8 1014.9 0.0
04/09:00am 26.0 21.3 6.1 28 10.6 NE 20 30 11 16 1016.8 1014.9 0.0
04/08:30am 25.0 21.4 6.7 31 9.8 ENE 15 24 8 13 1016.6 1014.7 0.0
04/08:00am 24.4 20.0 6.6 32 9.4 ENE 19 28 10 15 1016.6 1014.7 0.0
04/07:30am 24.1 20.1 6.8 33 9.2 ENE 17 26 9 14 1016.1 1014.2 0.0
04/07:00am 23.2 19.3 7.3 36 8.5 E 17 22 9 12 1015.8 1013.8 0.0
04/06:30am 22.9 19.9 7.8 38 8.1 ENE 13 19 7 10 1015.9 1013.9 0.0
04/06:00am 22.6 19.8 8.7 41 7.6 NE 13 19 7 10 1015.6 1013.6 0.0
04/05:30am 22.0 21.2 9.5 45 6.9 E 4 9 2 5 1015.6 1013.6 0.0
04/05:00am 22.1 21.1 10.3 47 6.6 NNE 6 7 3 4 1015.5 1013.5 0.0
04/04:30am 22.2 21.0 10.4 47 6.6 ENE 7 11 4 6 1015.7 1013.7 0.0
04/04:00am 22.0 20.7 11.1 50 6.2 NE 9 13 5 7 1015.7 1013.7 0.0
04/03:30am 20.3 20.8 11.5 57 5.0 CALM 0 0 0 0 1015.5 1013.5 0.0
04/03:00am 20.5 20.9 11.4 56 5.1 CALM 0 0 0 0 1015.6 1013.6 0.0
04/02:30am 20.4 20.8 11.3 56 5.1 CALM 0 0 0 0 1015.7 1013.7 0.0
04/02:00am 21.2 21.2 11.2 53 5.7 NE 2 6 1 3 1015.6 1013.6 0.0
04/01:30am 22.0 21.6 12.3 54 5.6 ESE 6 7 3 4 1015.6 1013.6 0.0
04/01:00am 22.4 21.8 11.8 51 6.1 ESE 6 7 3 4 1015.5 1013.5 0.0
04/12:30am 23.0 22.2 11.7 49 6.5 ESE 7 11 4 6 1015.8 1013.8 0.0
04/12:00am 23.5 22.3 11.5 47 6.9 ESE 9 13 5 7 1015.7 1013.7 0.0
 
Date/Time
WST
Temp
°C
App
Temp
°C
Dew
Point
Rel
Hum
%
Delta-T
°C
Wind Press
QNH
hPa
Press
MSL
hPa
Rain
since 9 am
mm
Dir
 
Spd
km/h
Gust
km/h
Spd
kts
Gust
kts
03/11:30pm 23.4 22.4 11.1 46 7.0 ESE 7 11 4 6 1016.0 1014.0 0.0
03/11:00pm 23.6 22.8 11.0 45 7.2 ESE 6 9 3 5 1016.1 1014.2 0.0
03/10:30pm 23.8 22.9 10.8 44 7.4 ESE 6 9 3 5 1016.3 1014.4 0.0
03/10:00pm 24.3 22.8 10.6 42 7.8 ESE 9 11 5 6 1016.5 1014.6 0.0
03/09:30pm 24.8 23.0 10.7 41 8.1 ESE 11 15 6 8 1016.8 1014.9 0.0
03/09:00pm 24.9 23.1 10.8 41 8.1 ESE 11 15 6 8 1016.7 1014.8 0.0
03/08:30pm 25.1 23.4 11.3 42 8.0 ESE 11 15 6 8 1016.9 1015.0 0.0
03/08:00pm 25.5 23.8 11.3 41 8.2 SE 11 17 6 9 1016.8 1014.9 0.0
03/07:30pm 26.1 24.5 11.5 40 8.5 ESE 11 15 6 8 1016.6 1014.7 0.0
03/07:00pm 26.7 25.0 11.2 38 9.0 ESE 11 15 6 8 1016.3 1014.4 0.0
03/06:30pm 27.2 25.1 11.3 37 9.3 ESE 13 17 7 9 1016.0 1014.0 0.0
03/06:00pm 27.7 26.0 11.3 36 9.6 ESE 11 17 6 9 1015.7 1013.7 0.0
03/05:30pm 28.3 26.3 11.4 35 9.9 ESE 13 17 7 9 1015.6 1013.6 0.0
03/05:00pm 29.0 26.7 11.6 34 10.3 E 15 22 8 12 1015.4 1013.4 0.0
03/04:30pm 29.3 26.3 11.8 34 10.4 ESE 19 30 10 16 1015.1 1013.2 0.0
03/04:00pm 29.7 26.5 11.2 31 10.9 ESE 19 26 10 14 1015.1 1013.2 0.0
03/03:30pm 30.1 28.0 11.1 31 11.2 E 13 20 7 11 1014.9 1013.0 0.0
03/03:00pm 30.5 27.0 11.0 30 11.5 E 20 28 11 15 1014.7 1012.8 0.0
03/02:30pm 29.6 27.4 10.7 31 11.0 E 13 26 7 14 1014.8 1012.9 0.0
03/02:00pm 30.3 27.7 10.8 30 11.4 ENE 15 24 8 13 1015.1 1013.2 0.0
03/01:30pm 29.9 26.6 10.9 31 11.1 ENE 19 35 10 19 1015.4 1013.4 0.0
03/01:00pm 29.8 26.7 10.4 30 11.3 ENE 17 22 9 12 1015.9 1013.9 0.0
03/12:30pm 29.1 25.6 10.3 31 10.9 ENE 19 28 10 15 1016.3 1014.4 0.0
03/12:00pm 28.7 25.5 11.3 34 10.2 E 19 26 10 14 1016.7 1014.8 0.0
03/11:30am 27.4 24.7 11.8 38 9.2 E 17 26 9 14 1017.4 1015.4 0.0
03/11:00am 27.1 23.8 11.6 38 9.1 E 20 32 11 17 1017.9 1016.0 0.0
03/10:30am 26.7 23.7 12.0 40 8.7 E 19 28 10 15 1018.4 1016.5 0.0
03/10:00am 24.9 21.8 11.5 43 7.7 E 19 28 10 15 1018.9 1017.0 0.0
03/09:30am 24.5 22.7 12.1 46 7.2 E 13 19 7 10 1018.9 1017.0 0.0
03/09:00am 23.3 23.0 13.2 53 6.0 SE 7 9 4 5 1019.0 1017.1 0.0
03/08:30am 21.9 21.5 14.0 61 4.7 SW 9 11 5 6 1018.9 1017.0 0.0
03/08:00am 21.5 20.3 13.9 62 4.5 WSW 13 17 7 9 1018.8 1016.9 0.0
03/07:30am 21.3 21.3 13.7 62 4.5 SW 6 7 3 4 1018.3 1016.4 0.0
03/07:00am 20.9 22.0 13.6 63 4.3 CALM 0 0 0 0 1017.9 1016.0 0.0
03/06:30am 20.8 21.9 13.5 63 4.3 CALM 0 0 0 0 1017.6 1015.6 0.0
03/06:00am 20.5 19.9 13.5 64 4.1 WSW 9 11 5 6 1017.4 1015.4 0.0
03/05:30am 20.3 19.0 13.7 66 3.9 WSW 13 19 7 10 1017.4 1015.4 0.0
03/05:00am 19.9 20.8 14.0 69 3.5 SW 2 6 1 3 1016.8 1014.9 0.0
03/04:30am 19.8 20.2 13.7 68 3.6 SW 4 6 2 3 1016.7 1014.8 0.0
03/04:00am 19.8 19.8 13.5 67 3.7 WSW 6 7 3 4 1016.5 1014.6 0.0
03/03:30am 20.0 21.0 13.2 65 4.0 CALM 0 0 0 0 1016.4 1014.5 0.0
03/03:00am 19.4 18.7 13.1 67 3.7 SW 9 11 5 6 1016.4 1014.5 0.0
03/02:30am 20.2 21.1 12.9 63 4.2 CALM 0 0 0 0 1016.5 1014.6 0.0
03/02:00am 21.5 21.2 13.4 60 4.8 ENE 7 9 4 5 1016.5 1014.6 0.0
03/01:30am 21.2 20.4 12.9 59 4.8 NE 9 11 5 6 1016.7 1014.8 0.0
03/01:00am 21.1 20.3 12.8 59 4.8 ENE 9 13 5 7 1016.8 1014.9 0.0
03/12:30am 21.6 20.7 12.7 57 5.2 ENE 9 13 5 7 1017.0 1015.1 0.0
03/12:00am 21.9 22.4 12.7 56 5.4 N 2 11 1 6 1017.5 1015.5 0.0
 
Date/Time
WST
Temp
°C
App
Temp
°C
Dew
Point
Rel
Hum
%
Delta-T
°C
Wind Press
QNH
hPa
Press
MSL
hPa
Rain
since 9 am
mm
Dir
 
Spd
km/h
Gust
km/h
Spd
kts
Gust
kts
02/11:30pm 21.3 21.5 13.2 60 4.7 NNW 4 6 2 3 1017.8 1015.9 0.0
02/11:00pm 22.2 21.8 12.5 54 5.6 SSW 6 11 3 6 1018.1 1016.2 0.0
02/10:30pm 23.0 20.9 12.3 51 6.2 SSE 15 19 8 10 1018.1 1016.2 0.0
02/10:00pm 23.0 21.3 12.6 52 6.1 SSE 13 19 7 10 1018.0 1016.1 0.0
02/09:30pm 23.0 21.0 12.6 52 6.1 SSE 15 20 8 11 1017.9 1016.0 0.0
02/09:00pm 23.0 21.1 12.9 53 5.9 SSE 15 20 8 11 1018.1 1016.2 0.0
02/08:30pm 22.9 20.1 14.2 58 5.2 S 22 32 12 17 1018.0 1016.1 0.0
02/08:00pm 24.3 22.5 13.2 50 6.6 S 15 33 8 18 1017.9 1016.0 0.0
02/07:30pm 27.2 25.6 8.1 30 10.6 NNE 6 9 3 5 1016.9 1015.0 0.0
02/07:00pm 27.5 24.8 7.4 28 11.0 ENE 11 15 6 8 1016.3 1014.4 0.0
02/06:30pm 27.7 25.2 8.1 29 10.9 NE 11 15 6 8 1015.8 1013.8 0.0
02/06:00pm 28.2 25.8 8.5 29 11.0 NE 11 15 6 8 1015.5 1013.5 0.0
02/05:30pm 28.9 26.1 8.6 28 11.4 NNE 13 20 7 11 1015.0 1013.1 0.0
02/05:00pm 29.6 25.7 8.6 27 11.8 NNE 19 24 10 13 1014.6 1012.7 0.0
02/04:30pm 30.2 25.8 9.1 27 12.0 NE 22 33 12 18 1014.5 1012.6 0.0
02/04:00pm 30.8 26.8 9.1 26 12.4 NE 20 32 11 17 1014.5 1012.6 0.0
02/03:30pm 31.1 27.2 9.3 26 12.5 NE 20 28 11 15 1014.5 1012.6 0.0
02/03:00pm 30.7 27.4 9.6 27 12.2 NE 17 26 9 14 1014.6 1012.7 0.0
02/02:30pm 30.5 26.8 9.4 27 12.1 NE 19 28 10 15 1014.9 1013.0 0.0
02/02:00pm 30.9 27.1 9.2 26 12.4 NE 19 28 10 15 1015.2 1013.3 0.0
02/01:30pm 30.0 26.0 9.0 27 12.0 NE 20 30 11 16 1015.6 1013.6 0.0
02/01:00pm 28.9 25.5 9.1 29 11.2 NNE 17 26 9 14 1016.1 1014.2 0.0
02/12:30pm 28.5 24.0 8.7 29 11.1 NNE 22 33 12 18 1016.6 1014.7 0.0
02/12:00pm 28.3 23.8 8.6 29 11.0 NE 22 32 12 17 1017.0 1015.1 0.0
02/11:30am 28.0 23.4 8.3 29 11.0 NE 22 32 12 17 1017.5 1015.5 0.0
02/11:00am 27.8 22.7 9.1 31 10.5 NE 26 39 14 21 1017.8 1015.9 0.0
02/10:30am 27.6 23.5 8.5 30 10.7 NE 20 33 11 18 1018.3 1016.4 0.0
02/10:00am 26.6 21.7 8.6 32 10.0 NE 24 33 13 18 1018.5 1016.6 0.0
02/09:30am 25.2 20.7 8.7 35 9.1 ENE 22 35 12 19 1018.7 1016.8 0.0
02/09:00am 23.9 20.0 9.5 40 8.0 ENE 20 28 11 15 1018.5 1016.6 0.6
02/08:30am 23.6 20.3 9.6 41 7.8 ENE 17 26 9 14 1018.5 1016.6 0.6
02/08:00am 22.6 19.8 10.1 45 7.0 ENE 15 22 8 12 1018.2 1016.3 0.6
02/07:30am 21.7 19.3 10.2 48 6.4 E 13 20 7 11 1017.9 1016.0 0.6
02/07:00am 21.4 18.7 10.3 49 6.2 E 15 22 8 12 1017.7 1015.7 0.6
02/06:30am 21.1 18.8 10.3 50 6.0 E 13 19 7 10 1017.1 1015.2 0.6
02/06:00am 20.9 18.5 10.1 50 6.0 E 13 19 7 10 1016.7 1014.8 0.6
02/05:30am 20.7 19.1 10.2 51 5.8 E 9 15 5 8 1016.8 1014.9 0.6
02/05:00am 20.6 19.1 10.4 52 5.7 ESE 9 13 5 7 1016.3 1014.4 0.6
02/04:30am 20.6 19.1 10.7 53 5.5 ESE 9 15 5 8 1016.0 1014.0 0.6
02/04:00am 20.5 19.2 11.2 55 5.2 ESE 9 15 5 8 1016.0 1014.0 0.6
02/03:30am 20.6 18.8 11.0 54 5.4 ESE 11 17 6 9 1016.1 1014.2 0.6
02/03:00am 20.5 18.9 11.4 56 5.1 SE 11 13 6 7 1015.8 1013.8 0.6
02/02:30am 20.7 19.5 11.6 56 5.2 SE 9 15 5 8 1015.9 1013.9 0.6
02/02:00am 21.1 19.9 11.7 55 5.4 SSE 9 13 5 7 1016.0 1014.0 0.6
02/01:30am 21.6 19.8 12.2 55 5.4 SE 13 17 7 9 1016.0 1014.0 0.6
02/01:00am 21.9 20.0 11.9 53 5.7 ESE 13 19 7 10 1015.7 1013.7 0.6
02/12:30am 22.2 19.4 12.5 54 5.6 ESE 19 28 10 15 1015.8 1013.8 0.6
02/12:00am 22.1 19.4 13.5 58 5.1 SE 20 28 11 15 1015.7 1013.7 0.6
 
Date/Time
WST
Temp
°C
App
Temp
°C
Dew
Point
Rel
Hum
%
Delta-T
°C
Wind Press
QNH
hPa
Press
MSL
hPa
Rain
since 9 am
mm
Dir
 
Spd
km/h
Gust
km/h
Spd
kts
Gust
kts
01/11:30pm 22.1 19.8 14.2 61 4.7 SE 19 28 10 15 1015.8 1013.8 0.6

Other Formats:

Comma delimited format used in spreadsheet applications
http://www.bom.gov.au/fwo/IDW60801/IDW60801.94317.axf

JavaScript Object Notation format (JSON) in row-major order
http://www.bom.gov.au/fwo/IDW60801/IDW60801.94317.json